sim
Sign-in with your pilot id or email,
or register
Callsign
Passwort

Schedule Details

Flight Number: RYR8582 (4)
Departure: London Stansted Airport (EGSS) at 13:45
Arrival: Thessaloniki International Airport (LGTS) at 16:55
Route: Ryanair Passenger Schedule. Enter filed route here before submitting Pirep.

Weather Information
Getting current METAR information for EGSS 230550Z AUTO 25002KT 8000 NCD 13/13 Q1025
Getting current METAR information for LGTS 230550Z VRB02KT CAVOK 27/18 Q1019 NOSIG

Schedule Frequency

Route Map